createdAt,value
2022-09-03T00:00:56.533Z,34.41
2022-09-03T00:03:31.175Z,34.13
2022-09-03T00:06:11.516Z,34.20
2022-09-03T00:08:45.666Z,34.26
2022-09-03T00:11:19.091Z,34.16
2022-09-03T00:13:52.608Z,34.08
2022-09-03T00:16:24.559Z,33.99
2022-09-03T00:18:57.880Z,34.13
2022-09-03T00:21:35.280Z,34.17
2022-09-03T00:24:05.688Z,34.24
2022-09-03T00:26:37.037Z,34.27
2022-09-03T00:29:13.307Z,34.03
2022-09-03T00:31:47.648Z,34.08
2022-09-03T00:34:23.129Z,34.46
2022-09-03T00:36:51.371Z,34.32
2022-09-03T00:39:21.338Z,34.38
2022-09-03T00:42:06.825Z,34.41
2022-09-03T00:44:58.186Z,34.50
2022-09-03T00:47:36.235Z,34.59
2022-09-03T00:50:11.852Z,34.20
2022-09-03T00:52:47.613Z,34.21
2022-09-03T00:55:29.746Z,34.20
2022-09-03T00:58:14.251Z,34.17
2022-09-03T01:00:45.972Z,34.60
2022-09-03T01:03:24.160Z,34.07
2022-09-03T01:06:13.038Z,34.37
2022-09-03T01:09:04.592Z,34.59
2022-09-03T01:11:45.438Z,34.41
2022-09-03T01:14:27.564Z,34.81
2022-09-03T01:17:03.446Z,34.45
2022-09-03T01:20:00.939Z,34.61
2022-09-03T01:22:53.180Z,34.61
2022-09-03T01:25:36.840Z,34.46
2022-09-03T01:28:24.397Z,34.38
2022-09-03T01:30:57.714Z,34.64
2022-09-03T01:33:32.874Z,34.47
2022-09-03T01:36:13.014Z,34.51
2022-09-03T01:38:45.867Z,34.74
2022-09-03T01:41:44.012Z,34.48
2022-09-03T01:44:24.056Z,34.71
2022-09-03T01:46:56.765Z,34.68
2022-09-03T01:49:33.070Z,34.92
2022-09-03T01:52:08.806Z,34.80
2022-09-03T01:54:51.297Z,34.77
2022-09-03T01:57:40.165Z,35.04
2022-09-03T02:00:13.917Z,34.72
2022-09-03T02:02:43.587Z,35.19
2022-09-03T02:05:14.421Z,34.87
2022-09-03T02:07:44.977Z,34.84
2022-09-03T02:10:17.085Z,34.98
2022-09-03T02:12:48.725Z,35.17
2022-09-03T02:15:21.681Z,35.11
2022-09-03T02:17:54.122Z,34.99
2022-09-03T02:20:24.657Z,35.20
2022-09-03T02:22:55.220Z,35.36
2022-09-03T02:25:25.674Z,35.27
2022-09-03T02:27:54.513Z,35.25
2022-09-03T02:30:23.969Z,35.03
2022-09-03T02:32:51.945Z,34.96
2022-09-03T02:35:19.862Z,35.00
2022-09-03T02:37:47.833Z,34.99
2022-09-03T02:40:16.165Z,35.54
2022-09-03T02:42:45.130Z,35.43
2022-09-03T02:45:23.620Z,35.51
2022-09-03T02:47:56.310Z,35.16
2022-09-03T02:50:25.134Z,35.16
2022-09-03T02:52:53.469Z,35.34
2022-09-03T02:55:21.993Z,35.14
2022-09-03T02:57:50.045Z,35.27
2022-09-03T03:00:19.102Z,35.28
2022-09-03T03:02:47.799Z,35.45
2022-09-03T03:05:25.961Z,35.15
2022-09-03T03:07:56.196Z,35.43
2022-09-03T03:10:26.738Z,35.61
2022-09-03T03:12:54.713Z,35.50
2022-09-03T03:15:22.964Z,35.33
2022-09-03T03:17:50.932Z,35.34
2022-09-03T03:20:20.261Z,35.46
2022-09-03T03:22:48.362Z,35.60
2022-09-03T03:25:16.493Z,35.62
2022-09-03T03:27:45.177Z,35.61
2022-09-03T03:30:13.981Z,35.32
2022-09-03T03:32:41.957Z,35.56
2022-09-03T03:35:11.922Z,35.62
2022-09-03T03:37:41.401Z,35.51
2022-09-03T03:40:10.553Z,35.57
2022-09-03T03:42:38.702Z,35.40
2022-09-03T03:45:07.775Z,35.79
2022-09-03T03:47:35.740Z,35.49
2022-09-03T03:50:04.903Z,35.79
2022-09-03T03:52:33.333Z,35.64
2022-09-03T03:55:02.684Z,35.73
2022-09-03T03:57:33.020Z,35.72
2022-09-03T04:00:01.126Z,35.87
2022-09-03T04:02:42.322Z,35.76
2022-09-03T04:05:11.080Z,35.99
2022-09-03T04:07:39.547Z,35.94
2022-09-03T04:10:10.524Z,36.00
2022-09-03T04:12:38.594Z,35.96
2022-09-03T04:15:07.317Z,36.10
2022-09-03T04:17:35.336Z,36.14
2022-09-03T04:20:04.148Z,35.79
2022-09-03T04:22:32.141Z,36.22
2022-09-03T04:25:00.111Z,36.12
2022-09-03T04:27:29.524Z,35.87
2022-09-03T04:29:57.541Z,36.00
2022-09-03T04:32:43.152Z,36.24
2022-09-03T04:35:11.397Z,36.22
2022-09-03T04:37:39.351Z,36.00
2022-09-03T04:40:08.671Z,36.30
2022-09-03T04:42:38.030Z,36.17
2022-09-03T04:45:06.692Z,36.36
2022-09-03T04:47:36.556Z,36.53
2022-09-03T04:50:04.881Z,36.45
2022-09-03T04:52:33.356Z,36.24
2022-09-03T04:55:02.313Z,36.45
2022-09-03T04:57:34.491Z,36.21
2022-09-03T05:00:04.692Z,36.46
2022-09-03T05:02:32.649Z,36.60
2022-09-03T05:05:00.688Z,36.73
2022-09-03T05:07:29.515Z,36.83
2022-09-03T05:09:58.700Z,36.69
2022-09-03T05:12:26.741Z,36.55
2022-09-03T05:14:54.710Z,36.65
2022-09-03T05:17:24.049Z,36.60
2022-09-03T05:19:52.024Z,37.00
2022-09-03T05:22:21.402Z,36.70
2022-09-03T05:24:49.726Z,36.81
2022-09-03T05:27:18.544Z,36.89
2022-09-03T05:29:47.140Z,36.90
2022-09-03T05:32:16.429Z,36.92
2022-09-03T05:34:45.730Z,36.78
2022-09-03T05:37:13.737Z,36.71
2022-09-03T05:39:42.004Z,36.91
2022-09-03T05:42:10.029Z,37.14
2022-09-03T05:44:38.577Z,36.78
2022-09-03T05:47:07.007Z,37.16
2022-09-03T05:49:35.001Z,36.83
2022-09-03T05:52:04.581Z,36.94
2022-09-03T05:54:32.600Z,37.09
2022-09-03T05:57:01.053Z,36.94
2022-09-03T05:59:29.032Z,36.69
2022-09-03T06:02:00.136Z,37.02
2022-09-03T06:04:28.552Z,36.79
2022-09-03T06:06:57.288Z,36.83
2022-09-03T06:09:26.660Z,36.98
2022-09-03T06:11:57.293Z,37.23
2022-09-03T06:14:26.817Z,36.88
2022-09-03T06:16:55.858Z,37.42
2022-09-03T06:19:23.829Z,37.17
2022-09-03T06:21:52.145Z,37.19
2022-09-03T06:24:26.329Z,37.08
2022-09-03T06:26:57.925Z,37.31
2022-09-03T06:29:26.049Z,37.03
2022-09-03T06:31:54.110Z,37.32
2022-09-03T06:34:23.288Z,37.09
2022-09-03T06:36:51.337Z,37.06
2022-09-03T06:39:22.704Z,37.11
2022-09-03T06:41:51.901Z,37.22
2022-09-03T06:44:28.461Z,37.09
2022-09-03T06:46:56.558Z,37.12
2022-09-03T06:49:26.241Z,36.80
2022-09-03T06:51:54.312Z,36.78
2022-09-03T06:54:23.193Z,36.98
2022-09-03T06:56:51.150Z,36.78
2022-09-03T06:59:19.329Z,36.80
2022-09-03T07:01:48.810Z,36.88
2022-09-03T07:04:19.454Z,36.85
2022-09-03T07:06:49.057Z,36.62
2022-09-03T07:09:19.044Z,36.88
2022-09-03T07:11:48.776Z,36.46
2022-09-03T07:14:18.258Z,36.86
2022-09-03T07:16:47.119Z,36.61
2022-09-03T07:19:16.920Z,36.61
2022-09-03T07:21:49.565Z,36.57
2022-09-03T07:24:19.415Z,36.39
2022-09-03T07:26:48.963Z,36.06
2022-09-03T07:29:20.394Z,35.99
2022-09-03T07:31:51.603Z,35.89
2022-09-03T07:34:24.299Z,35.97
2022-09-03T07:36:54.095Z,35.90
2022-09-03T07:39:22.205Z,35.69
2022-09-03T07:41:50.327Z,35.71
2022-09-03T07:44:20.531Z,35.60
2022-09-03T07:46:50.866Z,35.39
2022-09-03T07:49:22.178Z,35.26
2022-09-03T07:51:54.338Z,35.47
2022-09-03T07:54:24.001Z,35.32
2022-09-03T07:56:52.205Z,35.13
2022-09-03T07:59:23.083Z,35.37
2022-09-03T08:01:52.307Z,35.23
2022-09-03T08:04:22.085Z,35.26
2022-09-03T08:06:50.114Z,35.11
2022-09-03T08:09:18.008Z,34.79
2022-09-03T08:11:46.000Z,34.76
2022-09-03T08:14:15.472Z,34.95
2022-09-03T08:16:45.986Z,34.85
2022-09-03T08:19:14.893Z,34.84
2022-09-03T08:21:44.281Z,35.20
2022-09-03T08:24:13.120Z,35.24
2022-09-03T08:26:46.372Z,35.40
2022-09-03T08:29:16.276Z,35.44
2022-09-03T08:31:44.569Z,35.62
2022-09-03T08:34:14.592Z,35.61
2022-09-03T08:36:44.520Z,35.46
2022-09-03T08:39:12.587Z,35.54
2022-09-03T08:41:56.937Z,35.41
2022-09-03T08:44:29.412Z,35.52
2022-09-03T08:47:03.249Z,35.57
2022-09-03T08:49:35.860Z,35.85
2022-09-03T08:52:10.065Z,35.97
2022-09-03T08:54:38.873Z,35.78
2022-09-03T08:57:09.494Z,36.05
2022-09-03T08:59:37.599Z,35.90
2022-09-03T09:02:18.840Z,35.93
2022-09-03T09:04:57.974Z,36.09
2022-09-03T09:07:33.500Z,36.22
2022-09-03T09:10:10.565Z,36.42
2022-09-03T09:12:47.181Z,36.37
2022-09-03T09:15:26.917Z,36.23
2022-09-03T09:18:12.096Z,36.71
2022-09-03T09:20:46.269Z,36.28
2022-09-03T09:23:19.624Z,36.33
2022-09-03T09:25:51.167Z,36.55
2022-09-03T09:28:21.499Z,36.37
2022-09-03T09:30:52.081Z,36.22
2022-09-03T09:33:21.404Z,36.19
2022-09-03T09:35:50.187Z,36.24
2022-09-03T09:38:29.732Z,36.12
2022-09-03T09:40:59.966Z,36.11
2022-09-03T09:43:28.052Z,35.95
2022-09-03T09:46:09.637Z,35.75
2022-09-03T09:48:46.457Z,35.71
2022-09-03T09:51:19.301Z,35.30
2022-09-03T09:53:48.673Z,35.32
2022-09-03T09:56:24.062Z,35.00
2022-09-03T09:59:03.084Z,35.23
2022-09-03T10:01:32.160Z,35.00
2022-09-03T10:04:01.635Z,34.73
2022-09-03T10:06:49.812Z,34.71
2022-09-03T10:09:21.505Z,35.16
2022-09-03T10:12:09.965Z,34.84
2022-09-03T10:14:43.648Z,34.92
2022-09-03T10:17:19.872Z,34.76
2022-09-03T10:20:09.921Z,34.85
2022-09-03T10:22:52.428Z,34.77
2022-09-03T10:25:33.023Z,34.73
2022-09-03T10:28:02.170Z,34.64
2022-09-03T10:30:40.012Z,34.17
2022-09-03T10:33:15.517Z,34.19
2022-09-03T10:35:48.107Z,34.24
2022-09-03T10:38:20.971Z,34.15
2022-09-03T10:41:00.910Z,33.73
2022-09-03T10:43:46.933Z,33.70
2022-09-03T10:46:23.858Z,33.71
2022-09-03T10:49:10.647Z,33.56
2022-09-03T10:51:47.464Z,33.42
2022-09-03T10:54:34.330Z,33.27
2022-09-03T10:57:13.165Z,33.36
2022-09-03T10:59:56.783Z,33.58
2022-09-03T11:02:38.581Z,33.30
2022-09-03T11:05:12.592Z,33.32
2022-09-03T11:07:46.289Z,32.99
2022-09-03T11:10:20.837Z,33.19
2022-09-03T11:13:03.360Z,33.35
2022-09-03T11:15:37.407Z,33.46
2022-09-03T11:18:16.157Z,33.60
2022-09-03T11:20:45.822Z,33.60
2022-09-03T11:23:14.961Z,33.63
2022-09-03T11:25:47.794Z,33.61
2022-09-03T11:28:29.312Z,33.34
2022-09-03T11:31:14.889Z,33.38
2022-09-03T11:33:48.074Z,33.39
2022-09-03T11:36:28.193Z,33.44
2022-09-03T11:38:56.163Z,33.31
2022-09-03T11:41:28.456Z,33.30
2022-09-03T11:44:02.481Z,32.96
2022-09-03T11:46:33.264Z,32.91
2022-09-03T11:49:13.433Z,33.07
2022-09-03T11:51:44.200Z,32.89
2022-09-03T11:54:26.993Z,32.90
2022-09-03T11:57:11.685Z,32.86
2022-09-03T11:59:42.715Z,32.86
2022-09-03T12:02:28.171Z,32.60
2022-09-03T12:05:16.055Z,32.59
2022-09-03T12:08:09.637Z,32.54
2022-09-03T12:10:53.219Z,32.63
2022-09-03T12:13:33.307Z,32.68
2022-09-03T12:16:40.588Z,32.66
2022-09-03T12:19:17.021Z,32.78
2022-09-03T12:21:50.502Z,32.61
2022-09-03T12:24:20.242Z,32.51
2022-09-03T12:26:48.286Z,32.44
2022-09-03T12:29:27.719Z,32.30
2022-09-03T12:32:06.879Z,32.33
2022-09-03T12:34:35.024Z,32.26
2022-09-03T12:37:03.099Z,32.34
2022-09-03T12:42:24.970Z,32.30
2022-09-03T12:44:53.173Z,32.36
2022-09-03T12:47:39.566Z,32.30
2022-09-03T12:50:10.923Z,32.40
2022-09-03T12:52:45.089Z,32.31
2022-09-03T12:55:27.875Z,32.20
2022-09-03T12:58:02.815Z,32.23
2022-09-03T13:00:33.914Z,32.30
2022-09-03T13:03:07.137Z,31.91
2022-09-03T13:05:38.107Z,32.04
2022-09-03T13:08:09.783Z,31.54
2022-09-03T13:10:42.054Z,31.51
2022-09-03T13:13:24.093Z,31.49
2022-09-03T13:16:29.380Z,31.50
2022-09-03T13:19:06.777Z,31.43
2022-09-03T13:21:44.576Z,31.57
2022-09-03T13:24:30.081Z,31.54
2022-09-03T13:27:08.440Z,31.41
2022-09-03T13:29:52.575Z,31.45
2022-09-03T13:32:31.024Z,31.55
2022-09-03T13:35:10.304Z,31.59
2022-09-03T13:37:41.484Z,31.64
2022-09-03T13:40:19.464Z,31.76
2022-09-03T13:42:55.514Z,31.71
2022-09-03T13:45:31.368Z,31.81
2022-09-03T13:48:25.948Z,31.42
2022-09-03T13:51:04.452Z,31.33
2022-09-03T13:53:43.132Z,31.23
2022-09-03T13:56:20.449Z,31.31
2022-09-03T13:58:55.536Z,31.31
2022-09-03T14:01:28.493Z,31.21
2022-09-03T14:04:01.707Z,31.24
2022-09-03T14:06:42.124Z,31.21
2022-09-03T14:09:17.789Z,31.43
2022-09-03T14:11:57.941Z,31.62
2022-09-03T14:14:39.218Z,31.71
2022-09-03T14:17:13.700Z,31.73
2022-09-03T14:19:48.028Z,31.95
2022-09-03T14:22:22.078Z,31.96
2022-09-03T14:24:55.037Z,32.04
2022-09-03T14:27:28.836Z,32.08
2022-09-03T14:30:02.027Z,32.24
2022-09-03T14:32:35.630Z,32.33
2022-09-03T14:35:18.154Z,32.23
2022-09-03T14:38:26.000Z,32.30
2022-09-03T14:41:05.480Z,32.63
2022-09-03T14:43:57.537Z,32.63
2022-09-03T14:46:42.404Z,32.43
2022-09-03T14:49:27.613Z,32.78
2022-09-03T14:52:12.816Z,32.84
2022-09-03T14:54:59.765Z,32.82
2022-09-03T14:57:50.620Z,33.09
2022-09-03T15:00:22.199Z,33.11
2022-09-03T15:03:21.622Z,32.92
2022-09-03T15:06:03.010Z,33.24
2022-09-03T15:08:45.429Z,33.03
2022-09-03T15:11:18.379Z,33.31
2022-09-03T15:13:52.807Z,33.27
2022-09-03T15:16:32.658Z,33.26
2022-09-03T15:19:13.411Z,33.29
2022-09-03T15:21:57.965Z,33.49
2022-09-03T15:24:40.036Z,33.49
2022-09-03T15:27:20.764Z,33.37
2022-09-03T15:30:02.942Z,33.64
2022-09-03T15:32:47.611Z,33.60
2022-09-03T15:35:33.612Z,33.71
2022-09-03T15:38:04.464Z,34.07
2022-09-03T15:40:35.950Z,34.03
2022-09-03T15:43:09.700Z,34.23
2022-09-03T15:45:52.124Z,34.13
2022-09-03T15:48:28.321Z,34.31
2022-09-03T15:51:10.529Z,34.19
2022-09-03T15:53:43.904Z,34.34
2022-09-03T15:56:24.192Z,34.12
2022-09-03T15:59:00.878Z,34.23
2022-09-03T16:01:36.141Z,34.03
2022-09-03T16:04:13.038Z,34.38
2022-09-03T16:06:51.754Z,34.28
2022-09-03T16:09:30.129Z,34.33
2022-09-03T16:12:07.561Z,34.46
2022-09-03T16:14:42.699Z,34.36
2022-09-03T16:17:25.204Z,34.40
2022-09-03T16:19:59.623Z,34.73
2022-09-03T16:22:30.054Z,34.60
2022-09-03T16:25:02.575Z,34.79
2022-09-03T16:27:37.053Z,34.76
2022-09-03T16:30:10.980Z,34.89
2022-09-03T16:32:58.397Z,35.07
2022-09-03T16:35:38.865Z,35.23
2022-09-03T16:38:23.668Z,35.43
2022-09-03T16:40:58.044Z,35.21
2022-09-03T16:43:43.241Z,35.34
2022-09-03T16:46:26.042Z,35.26
2022-09-03T16:49:16.844Z,35.64
2022-09-03T16:51:55.133Z,35.55
2022-09-03T16:54:55.665Z,35.51
2022-09-03T16:57:44.193Z,35.47
2022-09-03T17:00:14.889Z,35.66
2022-09-03T17:03:26.309Z,35.56
2022-09-03T17:06:32.254Z,35.61
2022-09-03T17:09:09.066Z,35.94
2022-09-03T17:11:55.881Z,35.73
2022-09-03T17:14:42.696Z,35.73
2022-09-03T17:17:24.283Z,35.95
2022-09-03T17:19:57.942Z,36.01
2022-09-03T17:22:41.358Z,36.26
2022-09-03T17:25:22.900Z,36.51
2022-09-03T17:27:54.959Z,36.49
2022-09-03T17:30:40.594Z,36.59
2022-09-03T17:33:32.513Z,36.65
2022-09-03T17:36:09.497Z,36.82
2022-09-03T17:39:01.091Z,36.72
2022-09-03T17:41:41.907Z,36.72
2022-09-03T17:44:20.972Z,36.72
2022-09-03T17:46:59.266Z,36.80
2022-09-03T17:49:30.458Z,36.89
2022-09-03T17:52:05.156Z,37.14
2022-09-03T17:54:43.852Z,37.51
2022-09-03T17:57:19.967Z,37.27
2022-09-03T17:59:55.905Z,37.32
2022-09-03T18:02:32.158Z,37.53
2022-09-03T18:05:06.010Z,37.37
2022-09-03T18:07:43.014Z,37.31
2022-09-03T18:10:26.508Z,37.63
2022-09-03T18:13:04.762Z,37.50
2022-09-03T18:15:41.007Z,37.46
2022-09-03T18:18:18.326Z,37.56
2022-09-03T18:21:23.239Z,37.61
2022-09-03T18:24:17.137Z,37.63
2022-09-03T18:27:11.606Z,37.71
2022-09-03T18:30:05.700Z,37.76
2022-09-03T18:32:51.661Z,37.68
2022-09-03T18:35:37.549Z,37.76
2022-09-03T18:38:23.811Z,37.88
2022-09-03T18:41:15.268Z,38.07
2022-09-03T18:44:15.392Z,37.77
2022-09-03T18:50:26.957Z,37.89
2022-09-03T18:53:17.144Z,37.81
2022-09-03T18:56:16.236Z,37.85
2022-09-03T18:59:17.378Z,38.14
2022-09-03T19:02:03.182Z,37.94
2022-09-03T19:05:04.164Z,38.03
2022-09-03T19:08:03.669Z,38.16
2022-09-03T19:11:00.235Z,38.03
2022-09-03T19:13:51.786Z,38.01
2022-09-03T19:16:50.976Z,38.01
2022-09-03T19:19:58.190Z,37.82
2022-09-03T19:22:51.640Z,37.94
2022-09-03T19:25:37.528Z,37.76
2022-09-03T19:28:35.793Z,38.21
2022-09-03T19:31:42.655Z,37.77
2022-09-03T19:34:45.319Z,37.85
2022-09-03T19:37:38.930Z,38.16
2022-09-03T19:40:49.397Z,37.92
2022-09-03T19:43:44.276Z,37.89
2022-09-03T19:46:38.107Z,38.33
2022-09-03T19:49:36.873Z,38.46
2022-09-03T19:52:29.226Z,38.49
2022-09-03T19:55:16.797Z,38.35
2022-09-03T19:58:20.659Z,38.65
2022-09-03T20:01:15.670Z,38.46
2022-09-03T20:04:03.030Z,39.68
2022-09-03T20:06:54.861Z,41.03
2022-09-03T20:09:44.502Z,41.11
2022-09-03T20:12:18.296Z,41.30
2022-09-03T20:14:46.442Z,41.38
2022-09-03T20:17:24.375Z,42.12
2022-09-03T20:20:08.265Z,42.15
2022-09-03T20:22:47.370Z,42.04
2022-09-03T20:25:37.367Z,42.33
2022-09-03T20:28:18.017Z,42.06
2022-09-03T20:30:52.726Z,42.19
2022-09-03T20:33:31.138Z,42.13
2022-09-03T20:36:10.637Z,42.04
2022-09-03T20:39:05.634Z,42.09
2022-09-03T20:41:40.902Z,41.84
2022-09-03T20:44:44.700Z,41.63
2022-09-03T20:47:28.174Z,41.56
2022-09-03T20:50:04.322Z,41.53
2022-09-03T20:52:39.569Z,41.57
2022-09-03T20:55:17.120Z,41.37
2022-09-03T20:57:54.215Z,41.44
2022-09-03T21:00:23.284Z,41.24
2022-09-03T21:03:15.933Z,41.00
2022-09-03T21:05:54.036Z,41.09
2022-09-03T21:08:46.913Z,40.95
2022-09-03T21:11:29.409Z,41.19
2022-09-03T21:14:04.896Z,41.04
2022-09-03T21:16:43.992Z,41.04
2022-09-03T21:19:20.896Z,41.49
2022-09-03T21:21:59.704Z,41.88
2022-09-03T21:24:33.200Z,42.12
2022-09-03T21:27:08.220Z,41.70
2022-09-03T21:29:41.420Z,41.95
2022-09-03T21:32:16.801Z,41.94
2022-09-03T21:34:51.451Z,42.04
2022-09-03T21:37:19.943Z,41.97
2022-09-03T21:39:52.934Z,42.23
2022-09-03T21:42:32.206Z,42.42
2022-09-03T21:45:06.490Z,42.35
2022-09-03T21:47:41.765Z,42.14
2022-09-03T21:50:18.360Z,42.16
2022-09-03T21:52:54.402Z,42.02
2022-09-03T21:55:27.157Z,42.11
2022-09-03T21:58:15.312Z,42.01
2022-09-03T22:00:44.878Z,42.01
2022-09-03T22:03:13.803Z,41.83
2022-09-03T22:05:51.902Z,41.71
2022-09-03T22:08:24.828Z,41.93
2022-09-03T22:11:00.059Z,41.73
2022-09-03T22:13:33.339Z,41.51
2022-09-03T22:16:08.731Z,41.51
2022-09-03T22:18:36.885Z,41.29
2022-09-03T22:21:14.076Z,41.18
2022-09-03T22:23:55.498Z,41.36
2022-09-03T22:26:37.532Z,41.26
2022-09-03T22:29:15.463Z,41.15
2022-09-03T22:32:00.189Z,41.44
2022-09-03T22:34:42.553Z,41.41
2022-09-03T22:37:21.898Z,41.45
2022-09-03T22:39:50.054Z,41.61
2022-09-03T22:42:49.830Z,41.46
2022-09-03T22:45:29.501Z,41.65
2022-09-03T22:48:11.601Z,41.49
2022-09-03T22:50:49.594Z,41.43
2022-09-03T22:53:30.200Z,41.50
2022-09-03T22:56:07.067Z,41.32
2022-09-03T22:58:39.374Z,41.43
2022-09-03T23:01:14.557Z,41.61
2022-09-03T23:03:49.484Z,41.31
2022-09-03T23:06:25.972Z,41.37
2022-09-03T23:09:01.357Z,41.46
2022-09-03T23:11:35.257Z,41.38
2022-09-03T23:14:07.052Z,41.48
2022-09-03T23:16:40.813Z,41.60
2022-09-03T23:21:54.474Z,41.50
2022-09-03T23:24:32.112Z,41.32
2022-09-03T23:27:04.729Z,41.49
2022-09-03T23:29:38.544Z,41.55
2022-09-03T23:32:09.393Z,41.55
2022-09-03T23:34:39.337Z,41.23
2022-09-03T23:37:33.491Z,41.43
2022-09-03T23:40:37.972Z,41.40
2022-09-03T23:43:47.142Z,41.20
2022-09-03T23:46:20.803Z,41.24
2022-09-03T23:49:15.924Z,41.43
2022-09-03T23:51:55.307Z,41.47
2022-09-03T23:54:32.068Z,41.54
2022-09-03T23:57:08.236Z,41.18
2022-09-03T23:59:54.616Z,41.44
